Time;durP1;ratioP1;P1;durP2;ratioP2;P2;SDS_P1;SDS_P2;PMS_P1;PMS_P2;Temp;Humidity;BMP_temperature;BMP_pressure;BME280_temperature;BME280_humidity;BME280_pressure;Samples;Min_cycle;Max_cycle;Signal;HPM_P1;HPM_P2
2022/03/01 00:01:48;;;;;;;2.80;1.93;;;21.90;53.60;;;;;;5080166;28;20424;-82
2022/03/01 00:04:17;;;;;;;2.30;2.10;;;21.90;53.60;;;;;;5114294;28;20436;-82
2022/03/01 00:06:43;;;;;;;2.43;2.20;;;21.90;53.60;;;;;;5114098;28;20403;-82
2022/03/01 00:09:08;;;;;;;2.80;1.90;;;21.90;53.60;;;;;;5113314;28;20178;-82
2022/03/01 00:11:35;;;;;;;4.07;2.50;;;21.90;53.60;;;;;;5095288;28;20177;-83
2022/03/01 00:14:04;;;;;;;2.90;2.43;;;21.90;53.60;;;;;;5095880;28;20185;-83
2022/03/01 00:16:32;;;;;;;3.00;2.27;;;21.90;53.60;;;;;;5113689;28;20419;-83
2022/03/01 00:18:58;;;;;;;5.43;2.50;;;21.90;53.60;;;;;;5095579;28;20471;-83
2022/03/01 00:21:25;;;;;;;2.80;2.23;;;21.90;53.70;;;;;;5078379;28;20423;-83
2022/03/01 00:23:51;;;;;;;3.20;2.60;;;21.90;53.70;;;;;;5113456;28;20918;-84
2022/03/01 00:26:17;;;;;;;3.37;2.50;;;21.90;53.70;;;;;;5095590;28;20427;-82
2022/03/01 00:28:43;;;;;;;2.77;2.10;;;21.80;53.60;;;;;;5095374;28;20441;-83
2022/03/01 00:31:11;;;;;;;2.57;2.00;;;21.80;53.60;;;;;;5094016;28;20495;-83
2022/03/01 00:33:37;;;;;;;2.70;1.90;;;21.80;53.70;;;;;;5113167;28;20412;-83
2022/03/01 00:36:06;;;;;;;3.10;2.80;;;21.80;53.60;;;;;;5095059;28;20430;-83
2022/03/01 00:38:32;;;;;;;2.87;2.00;;;21.80;53.60;;;;;;5094933;28;20454;-83
2022/03/01 00:40:58;;;;;;;2.83;2.57;;;21.80;53.70;;;;;;5094950;28;20517;-82
2022/03/01 00:43:25;;;;;;;2.40;2.20;;;21.80;53.60;;;;;;5094487;28;20412;-82
2022/03/01 00:45:53;;;;;;;2.90;2.10;;;21.80;53.60;;;;;;5094800;28;20430;-82
2022/03/01 00:48:20;;;;;;;2.40;2.20;;;21.80;53.70;;;;;;5095521;28;20412;-82
2022/03/01 00:50:49;;;;;;;2.50;2.20;;;21.80;53.70;;;;;;5094936;28;20441;-82
2022/03/01 00:53:15;;;;;;;3.10;2.00;;;21.80;53.70;;;;;;5100597;28;20439;-82
2022/03/01 00:55:41;;;;;;;3.37;2.43;;;21.80;53.70;;;;;;5098358;28;20416;-82
2022/03/01 00:58:14;;;;;;;3.17;2.03;;;21.70;53.60;;;;;;5074501;28;20424;-82
2022/03/01 01:00:42;;;;;;;2.63;2.23;;;21.70;53.60;;;;;;5078278;28;20534;-82
2022/03/01 01:03:11;;;;;;;3.40;2.33;;;21.70;53.60;;;;;;5110957;28;20467;-82
2022/03/01 01:05:37;;;;;;;3.10;2.27;;;21.70;53.60;;;;;;5090754;28;20399;-82
2022/03/01 01:08:06;;;;;;;3.30;2.00;;;21.70;53.70;;;;;;5111624;28;20446;-82
2022/03/01 01:10:32;;;;;;;2.10;1.80;;;21.70;53.70;;;;;;5091989;28;20431;-82
2022/03/01 01:12:58;;;;;;;2.77;2.03;;;21.70;53.70;;;;;;5092648;28;20416;-82
2022/03/01 01:15:24;;;;;;;2.40;2.20;;;21.70;53.70;;;;;;5089274;28;20434;-82
2022/03/01 01:17:49;;;;;;;3.53;2.17;;;21.70;53.70;;;;;;5119294;28;20423;-82
2022/03/01 01:20:17;;;;;;;3.00;2.00;;;21.70;53.70;;;;;;5092148;28;20481;-82
2022/03/01 01:22:43;;;;;;;2.50;2.20;;;21.70;53.70;;;;;;5094173;28;20180;-82
2022/03/01 01:25:18;;;;;;;2.17;1.90;;;21.70;53.70;;;;;;5106419;28;20419;-82
2022/03/01 01:27:46;;;;;;;3.47;2.50;;;21.70;53.70;;;;;;5089684;28;20452;-82
2022/03/01 01:30:17;;;;;;;2.23;1.67;;;21.70;53.80;;;;;;5092735;28;20423;-82
2022/03/01 01:32:48;;;;;;;2.97;2.50;;;21.60;53.70;;;;;;5070550;28;20439;-82
2022/03/01 01:35:17;;;;;;;1.90;1.70;;;21.70;53.80;;;;;;5086884;28;20883;-82
2022/03/01 01:37:45;;;;;;;1.60;1.50;;;21.70;53.80;;;;;;5082527;28;20420;-82
2022/03/01 01:40:13;;;;;;;2.97;2.00;;;21.60;53.70;;;;;;5103703;28;20467;-82
2022/03/01 01:42:39;;;;;;;3.20;2.27;;;21.60;53.70;;;;;;5077904;28;20430;-82
2022/03/01 01:45:06;;;;;;;2.13;1.90;;;21.60;53.70;;;;;;5094154;28;20435;-82
2022/03/01 01:47:32;;;;;;;2.87;2.10;;;21.60;53.70;;;;;;5089729;28;20940;-82
2022/03/01 01:49:58;;;;;;;2.13;1.70;;;21.60;53.70;;;;;;5086596;28;20423;-82
2022/03/01 01:52:26;;;;;;;2.30;1.90;;;21.60;53.70;;;;;;5084711;28;20408;-82
2022/03/01 01:54:55;;;;;;;2.20;2.00;;;21.60;53.70;;;;;;5093272;28;20180;-82
2022/03/01 01:57:22;;;;;;;2.63;2.20;;;21.60;54.20;;;;;;5085876;28;20488;-82
2022/03/01 01:59:51;;;;;;;2.40;2.00;;;21.60;53.70;;;;;;5105022;28;20447;-83
2022/03/01 02:02:20;;;;;;;3.03;2.00;;;21.60;53.70;;;;;;5103096;28;20401;-83
2022/03/01 02:04:46;;;;;;;3.07;2.30;;;21.60;53.70;;;;;;5089087;28;20442;-83
2022/03/01 02:07:12;;;;;;;2.10;1.90;;;21.60;53.70;;;;;;5106637;28;20495;-83
2022/03/01 02:09:39;;;;;;;2.80;2.20;;;21.60;53.70;;;;;;5087198;28;20435;-82
2022/03/01 02:12:05;;;;;;;3.10;2.13;;;21.60;53.70;;;;;;5105281;28;20877;-82
2022/03/01 02:14:32;;;;;;;2.67;2.13;;;21.60;53.70;;;;;;5118580;28;20430;-82
2022/03/01 02:17:01;;;;;;;3.63;2.70;;;21.60;53.70;;;;;;5075214;28;20426;-82
2022/03/01 02:19:27;;;;;;;2.10;1.90;;;21.60;53.70;;;;;;5092118;28;20464;-82
2022/03/01 02:21:55;;;;;;;3.03;2.57;;;21.60;53.70;;;;;;5087686;28;20420;-82
2022/03/01 02:24:23;;;;;;;2.13;1.70;;;21.60;53.70;;;;;;5109748;28;20424;-82
2022/03/01 02:26:58;;;;;;;2.40;2.00;;;21.60;54.30;;;;;;5092547;28;20415;-82
2022/03/01 02:29:24;;;;;;;2.33;1.90;;;21.60;53.70;;;;;;5093739;28;20425;-82
2022/03/01 02:31:52;;;;;;;2.53;2.10;;;21.60;53.70;;;;;;5110641;28;20430;-82
2022/03/01 02:34:18;;;;;;;2.60;1.70;;;21.60;53.70;;;;;;5087633;28;20416;-82
2022/03/01 02:36:45;;;;;;;2.73;2.03;;;21.60;53.70;;;;;;5107586;28;20978;-82
2022/03/01 02:39:11;;;;;;;2.30;1.73;;;21.60;53.70;;;;;;5100809;28;20460;-82
2022/03/01 02:41:41;;;;;;;2.23;1.60;;;21.60;53.70;;;;;;5084821;28;20431;-82
2022/03/01 02:44:07;;;;;;;2.60;2.40;;;21.60;53.70;;;;;;5094078;28;20427;-82
2022/03/01 02:46:33;;;;;;;2.40;1.70;;;21.60;53.70;;;;;;5100575;28;20431;-82
2022/03/01 02:49:01;;;;;;;3.17;2.47;;;21.60;53.70;;;;;;5095853;28;20419;-82
2022/03/01 02:51:27;;;;;;;2.27;1.93;;;21.60;53.70;;;;;;5085488;28;20452;-82
2022/03/01 02:53:53;;;;;;;2.47;2.10;;;21.60;53.70;;;;;;5091199;28;20427;-82
2022/03/01 02:56:20;;;;;;;1.97;1.70;;;21.50;53.60;;;;;;5090934;28;20422;-82
2022/03/01 02:58:46;;;;;;;2.50;1.80;;;21.50;53.60;;;;;;5072065;28;20429;-82
2022/03/01 03:01:12;;;;;;;2.03;1.83;;;21.50;53.60;;;;;;5083156;28;20747;-82
2022/03/01 03:03:38;;;;;;;2.20;1.80;;;21.50;53.60;;;;;;5085592;28;20170;-82
2022/03/01 03:06:05;;;;;;;1.93;1.80;;;21.50;53.60;;;;;;5105871;28;20814;-82
2022/03/01 03:08:31;;;;;;;2.00;1.53;;;21.50;53.60;;;;;;5079480;28;20520;-82
2022/03/01 03:10:59;;;;;;;2.30;1.83;;;21.50;53.60;;;;;;5113392;28;20430;-82
2022/03/01 03:13:26;;;;;;;2.70;2.20;;;21.50;53.60;;;;;;5089841;28;20455;-82
2022/03/01 03:15:52;;;;;;;2.53;2.00;;;21.50;53.60;;;;;;5096062;28;20412;-82
2022/03/01 03:18:18;;;;;;;2.50;1.60;;;21.50;53.60;;;;;;5113607;28;20431;-82
2022/03/01 03:20:48;;;;;;;2.43;2.00;;;21.50;53.60;;;;;;5113800;28;21038;-82
2022/03/01 03:23:14;;;;;;;3.40;2.20;;;21.50;53.60;;;;;;5095717;28;20492;-82
2022/03/01 03:25:41;;;;;;;2.20;2.00;;;21.50;53.60;;;;;;5094378;28;20801;-82
2022/03/01 03:28:06;;;;;;;1.97;1.30;;;21.50;53.60;;;;;;5096281;28;20189;-82
2022/03/01 03:30:37;;;;;;;1.70;1.60;;;21.50;53.60;;;;;;5086123;28;20443;-82
2022/03/01 03:33:03;;;;;;;2.60;1.93;;;21.50;53.60;;;;;;5097854;28;20216;-82
2022/03/01 03:35:31;;;;;;;2.03;1.77;;;21.50;53.70;;;;;;5097550;28;20424;-82
2022/03/01 03:37:57;;;;;;;2.73;2.30;;;21.50;53.60;;;;;;5055906;28;20424;-82
2022/03/01 03:40:23;;;;;;;1.90;1.70;;;21.50;53.60;;;;;;5097336;28;20467;-82
2022/03/01 03:42:49;;;;;;;1.90;1.67;;;21.50;53.60;;;;;;5115035;28;20434;-82
2022/03/01 03:45:18;;;;;;;3.37;2.10;;;21.50;53.60;;;;;;5098494;28;20185;-82
2022/03/01 03:47:45;;;;;;;2.40;2.20;;;21.50;53.60;;;;;;5095581;28;20538;-82
2022/03/01 03:50:12;;;;;;;2.00;1.80;;;21.50;53.60;;;;;;5077502;28;20196;-82
2022/03/01 03:52:41;;;;;;;2.40;1.90;;;21.50;53.60;;;;;;5083940;28;20416;-82
2022/03/01 03:55:09;;;;;;;2.23;1.90;;;21.50;53.60;;;;;;5098548;28;20479;-82
2022/03/01 03:57:37;;;;;;;2.17;1.80;;;21.50;53.60;;;;;;5115559;28;20408;-82
2022/03/01 04:00:09;;;;;;;3.13;1.90;;;21.50;53.60;;;;;;5115043;28;20452;-82
2022/03/01 04:02:38;;;;;;;2.37;1.90;;;21.50;53.60;;;;;;5129325;28;20779;-82
2022/03/01 04:05:05;;;;;;;2.77;2.00;;;21.50;53.60;;;;;;5125722;28;20463;-82
2022/03/01 04:07:30;;;;;;;2.33;1.80;;;21.50;53.60;;;;;;5110716;28;20413;-82
2022/03/01 04:09:56;;;;;;;3.37;2.90;;;21.40;53.60;;;;;;5094934;28;20421;-82
2022/03/01 04:12:22;;;;;;;2.07;1.67;;;21.50;53.60;;;;;;5095906;28;20189;-82
2022/03/01 04:14:49;;;;;;;2.40;1.60;;;21.50;53.60;;;;;;5096846;28;20173;-82
2022/03/01 04:17:18;;;;;;;2.57;1.70;;;21.50;53.60;;;;;;5114685;28;20245;-82
2022/03/01 04:19:44;;;;;;;2.40;2.10;;;21.40;53.50;;;;;;5096819;28;20952;-82
2022/03/01 04:22:10;;;;;;;2.20;1.93;;;21.40;53.60;;;;;;5114986;28;20427;-82
2022/03/01 04:24:36;;;;;;;2.00;1.80;;;21.40;53.60;;;;;;5097761;28;20411;-82
2022/03/01 04:27:02;;;;;;;3.07;2.00;;;21.40;53.60;;;;;;5097312;28;20178;-82
2022/03/01 04:29:28;;;;;;;2.10;1.57;;;21.50;53.60;;;;;;5096915;28;20188;-82
2022/03/01 04:31:54;;;;;;;2.17;1.67;;;21.40;53.60;;;;;;5114839;28;20411;-82
2022/03/01 04:34:23;;;;;;;2.00;1.60;;;21.40;53.60;;;;;;5102082;28;20440;-82
2022/03/01 04:36:48;;;;;;;2.03;1.80;;;21.40;53.60;;;;;;5093682;28;20408;-83
2022/03/01 04:39:17;;;;;;;2.13;1.60;;;21.40;53.50;;;;;;5093171;28;20467;-82
2022/03/01 04:41:43;;;;;;;1.90;1.50;;;21.40;53.50;;;;;;5093283;28;20193;-82
2022/03/01 04:44:12;;;;;;;2.27;1.97;;;21.40;53.50;;;;;;5094105;28;20408;-82
2022/03/01 04:46:38;;;;;;;1.60;1.50;;;21.40;53.50;;;;;;5093022;28;20412;-82
2022/03/01 04:49:04;;;;;;;2.10;1.90;;;21.40;53.50;;;;;;5132279;28;20423;-82
2022/03/01 04:51:30;;;;;;;2.40;2.00;;;21.40;53.50;;;;;;5091785;28;20429;-83
2022/03/01 04:53:56;;;;;;;2.13;1.70;;;21.40;53.50;;;;;;5096727;28;20466;-82
2022/03/01 04:56:22;;;;;;;3.20;2.00;;;21.40;53.50;;;;;;5093829;28;20428;-82
2022/03/01 04:58:50;;;;;;;1.70;1.40;;;21.40;53.50;;;;;;5076339;28;20188;-82
2022/03/01 05:01:16;;;;;;;2.10;1.73;;;21.40;53.50;;;;;;5063006;28;20507;-82
2022/03/01 05:03:41;;;;;;;1.70;1.57;;;21.40;53.50;;;;;;5072795;28;20405;-82
2022/03/01 05:06:07;;;;;;;2.13;1.63;;;21.40;53.50;;;;;;5055765;28;20509;-82
2022/03/01 05:08:33;;;;;;;1.53;1.43;;;21.40;53.50;;;;;;5072146;28;20181;-82
2022/03/01 05:11:02;;;;;;;2.43;1.43;;;21.40;53.50;;;;;;5054803;28;20453;-82
2022/03/01 05:13:29;;;;;;;1.73;1.30;;;21.40;53.40;;;;;;5028225;28;20196;-82
2022/03/01 05:15:55;;;;;;;1.90;1.70;;;21.40;53.40;;;;;;5064398;28;20932;-82
2022/03/01 05:18:21;;;;;;;2.20;1.70;;;21.40;53.40;;;;;;5035255;28;20423;-82
2022/03/01 05:20:49;;;;;;;2.80;1.83;;;21.40;53.40;;;;;;5058577;28;20481;-82
2022/03/01 05:23:15;;;;;;;2.37;1.73;;;21.40;53.40;;;;;;5062468;28;20418;-82
2022/03/01 05:25:41;;;;;;;1.87;1.40;;;21.40;53.50;;;;;;5052448;28;20410;-82
2022/03/01 05:28:07;;;;;;;2.33;1.53;;;21.40;53.40;;;;;;5035030;28;20437;-82
2022/03/01 05:30:33;;;;;;;1.77;1.50;;;21.40;53.40;;;;;;5056143;28;20432;-82
2022/03/01 05:32:59;;;;;;;2.03;1.80;;;21.30;53.40;;;;;;5064556;28;20411;-82
2022/03/01 05:35:28;;;;;;;2.43;1.70;;;21.40;53.40;;;;;;5052670;28;20430;-82
2022/03/01 05:37:55;;;;;;;1.83;1.57;;;21.30;53.40;;;;;;5035403;28;20228;-82
2022/03/01 05:40:28;;;;;;;3.00;2.80;;;21.30;53.40;;;;;;5035177;28;20509;-82
2022/03/01 05:42:56;;;;;;;1.93;1.67;;;21.30;53.40;;;;;;5035185;28;20441;-82
2022/03/01 05:45:25;;;;;;;1.70;1.60;;;21.30;53.40;;;;;;5068802;28;20417;-82
2022/03/01 05:47:58;;;;;;;1.70;1.60;;;21.30;53.40;;;;;;5067532;28;20452;-82
2022/03/01 05:50:26;;;;;;;1.73;1.60;;;21.30;53.40;;;;;;5061557;28;20432;-82
2022/03/01 05:52:53;;;;;;;2.23;1.93;;;21.30;53.50;;;;;;5095477;28;20413;-82
2022/03/01 05:55:19;;;;;;;1.83;1.33;;;21.30;53.50;;;;;;5075995;28;20405;-82
2022/03/01 05:57:45;;;;;;;1.40;1.20;;;21.30;53.50;;;;;;5075272;28;20416;-82
2022/03/01 06:00:17;;;;;;;2.47;1.93;;;21.30;53.50;;;;;;5079030;28;20452;-82
2022/03/01 06:02:47;;;;;;;2.57;2.13;;;21.30;53.50;;;;;;5096656;28;20431;-82
2022/03/01 06:05:14;;;;;;;2.37;1.83;;;21.30;53.50;;;;;;5079100;28;20471;-82
2022/03/01 06:07:41;;;;;;;3.07;2.20;;;21.30;53.50;;;;;;5097910;28;20392;-82
2022/03/01 06:10:09;;;;;;;2.27;1.70;;;21.30;53.50;;;;;;5097670;28;20427;-81
2022/03/01 06:12:35;;;;;;;2.00;1.80;;;21.30;54.00;;;;;;5096749;28;20412;-82
2022/03/01 06:15:04;;;;;;;2.13;1.90;;;21.30;53.50;;;;;;5096973;28;20421;-83
2022/03/01 06:17:31;;;;;;;2.57;1.80;;;21.30;53.50;;;;;;5080248;28;20447;-82
2022/03/01 06:19:57;;;;;;;2.63;2.00;;;21.30;53.50;;;;;;5080335;28;20463;-82
2022/03/01 06:22:30;;;;;;;2.20;2.00;;;21.30;53.40;;;;;;5079891;28;20886;-82
2022/03/01 06:24:57;;;;;;;2.13;1.93;;;21.30;53.40;;;;;;5097242;28;20393;-83
2022/03/01 06:27:24;;;;;;;3.90;2.03;;;21.30;53.40;;;;;;5080106;28;20428;-83
2022/03/01 06:29:50;;;;;;;2.17;1.83;;;21.30;53.40;;;;;;5097710;28;20409;-83
2022/03/01 06:32:16;;;;;;;2.83;2.30;;;21.30;53.20;;;;;;5062152;28;20424;-82
2022/03/01 06:34:42;;;;;;;3.20;1.97;;;21.30;53.20;;;;;;5096498;28;20436;-83
2022/03/01 06:37:13;;;;;;;2.70;2.30;;;21.30;53.30;;;;;;5080635;28;20433;-83
2022/03/01 06:39:44;;;;;;;2.13;1.83;;;21.30;53.40;;;;;;5063818;28;20487;-82
2022/03/01 06:42:17;;;;;;;2.30;1.93;;;21.40;53.40;;;;;;5064221;28;20508;-82
2022/03/01 06:45:03;;;;;;;2.07;1.87;;;21.40;53.40;;;;;;5082057;28;20417;-83
2022/03/01 06:47:31;;;;;;;2.53;1.73;;;21.40;53.50;;;;;;5097685;28;20401;-82
2022/03/01 06:50:01;;;;;;;1.93;1.67;;;21.40;53.50;;;;;;5080285;28;20416;-82
2022/03/01 06:52:27;;;;;;;2.10;1.90;;;21.40;53.50;;;;;;5063725;28;20493;-83
2022/03/01 06:54:52;;;;;;;2.37;1.83;;;21.40;53.50;;;;;;5080455;28;20412;-82
2022/03/01 06:57:20;;;;;;;2.40;1.60;;;21.40;53.40;;;;;;5080480;28;20190;-82
2022/03/01 06:59:47;;;;;;;2.00;1.80;;;21.40;53.40;;;;;;5092995;28;20213;-82
2022/03/01 07:02:16;;;;;;;2.40;2.10;;;21.50;53.50;;;;;;5083599;28;20416;-82
2022/03/01 07:04:49;;;;;;;2.33;2.13;;;21.50;53.50;;;;;;5084003;28;20430;-82
2022/03/01 07:07:16;;;;;;;2.50;2.20;;;21.50;53.50;;;;;;5089470;28;20404;-82
2022/03/01 07:09:43;;;;;;;2.67;2.20;;;21.50;53.50;;;;;;5083674;28;20436;-82
2022/03/01 07:12:14;;;;;;;2.17;1.70;;;21.50;53.50;;;;;;5083639;28;20424;-82
2022/03/01 07:14:41;;;;;;;2.13;1.60;;;21.50;53.50;;;;;;5100104;28;20396;-82
2022/03/01 07:17:08;;;;;;;2.50;2.03;;;21.60;53.50;;;;;;5118334;28;20440;-82
2022/03/01 07:19:35;;;;;;;3.57;2.10;;;21.60;53.50;;;;;;5083529;28;20463;-82
2022/03/01 07:22:05;;;;;;;2.87;2.30;;;21.60;53.50;;;;;;5099862;28;20427;-82
2022/03/01 07:24:38;;;;;;;2.37;1.93;;;21.60;53.80;;;;;;5100563;28;20420;-82
2022/03/01 07:27:05;;;;;;;2.60;1.70;;;21.60;53.50;;;;;;5100065;28;20499;-82
2022/03/01 07:29:37;;;;;;;4.30;2.00;;;21.60;53.50;;;;;;5101495;28;20418;-82
2022/03/01 07:32:07;;;;;;;2.03;1.83;;;21.60;53.40;;;;;;5117720;28;20420;-82
2022/03/01 07:34:37;;;;;;;2.80;2.10;;;21.60;53.40;;;;;;5100181;28;20427;-82
2022/03/01 07:37:06;;;;;;;2.60;1.90;;;21.60;53.40;;;;;;5117946;28;20479;-82
2022/03/01 07:39:33;;;;;;;2.80;2.17;;;21.70;53.50;;;;;;5116006;28;20444;-82
2022/03/01 07:42:05;;;;;;;2.43;1.77;;;21.60;53.40;;;;;;5083123;28;20520;-82
2022/03/01 07:44:34;;;;;;;2.00;1.40;;;21.60;53.40;;;;;;5083556;28;20395;-82
2022/03/01 07:47:10;;;;;;;2.47;2.07;;;21.70;54.00;;;;;;5117510;28;20491;-82
2022/03/01 07:49:36;;;;;;;2.37;1.73;;;21.70;53.50;;;;;;5083417;28;20428;-82
2022/03/01 07:52:03;;;;;;;1.73;1.63;;;21.70;53.40;;;;;;5099656;28;20415;-82
2022/03/01 07:54:30;;;;;;;2.33;1.83;;;21.70;53.40;;;;;;5117117;28;20428;-82
2022/03/01 07:56:58;;;;;;;2.33;2.10;;;21.70;53.40;;;;;;5116845;28;20430;-83
2022/03/01 07:59:25;;;;;;;2.60;2.27;;;21.70;53.40;;;;;;5091528;28;20447;-82
2022/03/01 08:05:17;;;;;;;2.53;1.90;;;21.70;53.40;;;;;;5116863;28;20395;-82
2022/03/01 08:07:46;;;;;;;2.50;2.20;;;21.70;53.40;;;;;;5098089;28;20412;-86
2022/03/01 08:10:22;;;;;;;4.17;2.40;;;21.70;53.40;;;;;;5114125;28;20419;-81
2022/03/01 08:12:50;;;;;;;2.30;1.97;;;21.70;53.40;;;;;;5082309;28;20422;-81
2022/03/01 08:15:19;;;;;;;2.80;1.77;;;21.80;53.50;;;;;;5096524;28;20403;-84
2022/03/01 08:17:49;;;;;;;3.93;1.90;;;21.80;53.50;;;;;;5095774;28;20411;-83
2022/03/01 08:20:19;;;;;;;3.23;1.80;;;21.80;53.50;;;;;;5097073;28;20523;-83
2022/03/01 08:22:46;;;;;;;4.70;2.17;;;21.80;53.40;;;;;;5097545;28;20430;-82
2022/03/01 08:25:16;;;;;;;2.70;2.13;;;21.80;53.40;;;;;;5097985;28;20402;-81
2022/03/01 08:33:59;;;;;;;2.30;2.10;;;21.80;53.20;;;;;;5074155;28;20841;-81
2022/03/01 08:36:27;;;;;;;2.90;2.10;;;21.80;53.10;;;;;;5073410;28;20421;-84
2022/03/01 08:38:55;;;;;;;2.97;2.10;;;21.80;53.00;;;;;;5054829;28;20425;-81
2022/03/01 08:41:21;;;;;;;3.83;2.50;;;21.80;52.90;;;;;;5070755;28;20500;-81
2022/03/01 08:43:47;;;;;;;2.30;2.10;;;21.90;52.80;;;;;;5071417;28;20413;-82
2022/03/01 08:46:14;;;;;;;4.83;2.73;;;21.90;52.60;;;;;;5052468;28;20423;-81
2022/03/01 08:48:41;;;;;;;3.00;2.53;;;21.90;52.50;;;;;;5067875;28;20484;-82
2022/03/01 08:51:07;;;;;;;3.70;2.67;;;21.90;52.40;;;;;;5072900;28;20432;-82
2022/03/01 08:53:36;;;;;;;3.40;2.43;;;21.90;52.30;;;;;;5056140;28;20512;-81
2022/03/01 08:56:02;;;;;;;5.37;2.60;;;21.90;52.30;;;;;;5055861;28;20425;-81
2022/03/01 08:58:28;;;;;;;2.80;2.40;;;21.90;52.20;;;;;;5056027;28;20425;-81
2022/03/01 09:00:54;;;;;;;3.40;2.17;;;21.90;52.20;;;;;;5087456;28;20460;-81
2022/03/01 09:03:23;;;;;;;4.50;2.50;;;21.90;52.20;;;;;;5095986;28;20462;-81
2022/03/01 09:05:49;;;;;;;4.07;2.67;;;21.90;52.20;;;;;;5096666;28;20403;-81
2022/03/01 09:08:15;;;;;;;2.23;2.03;;;22.00;52.30;;;;;;5114032;28;20412;-81
2022/03/01 09:10:42;;;;;;;3.97;2.87;;;21.90;52.20;;;;;;5096066;28;20404;-81
2022/03/01 09:13:17;;;;;;;3.10;2.27;;;22.00;52.30;;;;;;5084080;28;20436;-82
2022/03/01 09:15:46;;;;;;;7.63;2.60;;;22.00;52.30;;;;;;5115061;28;20392;-82
2022/03/01 09:18:14;;;;;;;3.07;2.27;;;22.00;52.30;;;;;;5113703;28;20430;-82
2022/03/01 09:20:41;;;;;;;4.43;2.43;;;22.00;52.30;;;;;;5080258;28;20459;-82
2022/03/01 09:23:08;;;;;;;3.60;2.30;;;22.00;52.40;;;;;;5130831;28;20436;-81
2022/03/01 09:25:40;;;;;;;2.97;2.40;;;22.00;52.40;;;;;;5099421;28;20427;-81
2022/03/01 09:28:12;;;;;;;3.60;2.70;;;22.00;52.40;;;;;;5095571;28;20426;-81
2022/03/01 09:30:41;;;;;;;4.13;2.70;;;22.00;52.40;;;;;;5114090;28;20426;-82
2022/03/01 09:33:08;;;;;;;3.33;2.27;;;22.00;52.40;;;;;;5097192;28;20732;-82
2022/03/01 09:35:35;;;;;;;2.43;2.17;;;22.00;52.40;;;;;;5079522;28;20420;-81
2022/03/01 09:38:03;;;;;;;2.53;2.20;;;22.00;52.40;;;;;;5113895;28;20432;-81
2022/03/01 09:40:33;;;;;;;3.00;2.30;;;22.10;52.50;;;;;;5114769;28;20498;-81
2022/03/01 09:43:02;;;;;;;4.07;2.23;;;22.10;52.50;;;;;;5114755;28;20470;-82
2022/03/01 09:45:32;;;;;;;2.33;2.10;;;22.10;52.50;;;;;;5084009;28;20431;-82
2022/03/01 09:47:59;;;;;;;2.60;1.97;;;22.10;52.50;;;;;;5094340;28;20430;-82
2022/03/01 09:50:31;;;;;;;2.93;2.50;;;22.10;52.50;;;;;;5115333;28;20417;-82
2022/03/01 09:53:04;;;;;;;3.53;2.40;;;22.10;52.50;;;;;;5097628;28;20412;-82
2022/03/01 09:55:32;;;;;;;3.60;2.37;;;22.10;52.50;;;;;;5100685;28;20430;-81
2022/03/01 09:58:07;;;;;;;3.83;2.60;;;22.10;52.50;;;;;;5116998;28;20407;-82
2022/03/01 10:00:34;;;;;;;4.53;2.40;;;22.10;52.50;;;;;;5097110;28;20439;-82
2022/03/01 10:03:09;;;;;;;4.07;2.27;;;22.10;52.50;;;;;;5078328;28;20415;-81
2022/03/01 10:05:39;;;;;;;3.10;2.10;;;22.10;52.50;;;;;;5097274;28;20395;-81
2022/03/01 10:08:29;;;;;;;2.50;2.07;;;22.10;52.50;;;;;;5088956;28;20452;-83
2022/03/01 10:11:07;;;;;;;3.53;2.27;;;22.10;52.50;;;;;;5101158;28;20411;-83
2022/03/01 10:13:58;;;;;;;3.33;2.60;;;22.10;52.50;;;;;;5095050;28;20428;-82
2022/03/01 10:19:36;;;;;;;3.80;2.40;;;22.10;52.50;;;;;;5102596;28;20470;-83
2022/03/01 10:22:07;;;;;;;2.67;1.93;;;22.10;52.60;;;;;;5115813;28;20376;-82
2022/03/01 10:24:37;;;;;;;3.80;2.47;;;22.10;52.60;;;;;;5098362;28;20412;-82
2022/03/01 10:27:06;;;;;;;2.93;2.23;;;22.10;52.60;;;;;;5099275;28;20464;-82
2022/03/01 10:29:34;;;;;;;3.90;2.37;;;22.10;53.20;;;;;;5098447;28;20428;-82
2022/03/01 10:32:16;;;;;;;3.47;2.50;;;22.10;52.60;;;;;;5075093;28;20454;-82
2022/03/01 10:35:11;;;;;;;2.40;2.20;;;22.10;52.60;;;;;;5098279;28;20381;-82
2022/03/01 10:37:39;;;;;;;3.03;2.60;;;22.10;52.60;;;;;;5092529;28;20415;-82
2022/03/01 10:40:34;;;;;;;6.70;2.50;;;22.10;53.20;;;;;;5101195;28;20451;-82
2022/03/01 10:43:14;;;;;;;2.47;1.90;;;22.10;52.70;;;;;;5083613;28;20501;-82
2022/03/01 10:45:51;;;;;;;3.57;2.43;;;22.10;52.70;;;;;;5099438;28;20389;-82
2022/03/01 10:48:35;;;;;;;3.07;2.43;;;22.10;52.70;;;;;;5099150;28;20483;-82
2022/03/01 10:51:10;;;;;;;3.27;2.10;;;22.10;52.70;;;;;;5081641;28;20447;-82
2022/03/01 10:53:39;;;;;;;2.63;2.27;;;22.10;52.70;;;;;;5084816;28;20491;-82
2022/03/01 10:56:16;;;;;;;2.93;2.50;;;22.10;52.70;;;;;;5101364;28;20426;-82
2022/03/01 10:58:46;;;;;;;2.67;2.30;;;22.10;52.70;;;;;;5102802;28;20439;-82
2022/03/01 11:01:13;;;;;;;6.23;3.00;;;22.10;52.70;;;;;;5099413;28;20527;-83
2022/03/01 11:03:41;;;;;;;1.90;1.67;;;22.10;52.70;;;;;;5118810;28;20415;-82
2022/03/01 11:06:16;;;;;;;3.43;2.17;;;22.10;52.70;;;;;;5100460;28;20419;-82
2022/03/01 11:08:48;;;;;;;2.63;2.17;;;22.10;52.70;;;;;;5118858;28;20398;-82
2022/03/01 11:11:38;;;;;;;2.50;2.20;;;22.10;52.70;;;;;;5119237;28;20411;-82
2022/03/01 11:14:20;;;;;;;2.20;1.90;;;22.10;52.70;;;;;;5100533;28;20420;-82
2022/03/01 11:17:00;;;;;;;4.03;2.47;;;22.10;52.70;;;;;;5119038;28;20420;-82
2022/03/01 11:19:52;;;;;;;2.47;2.27;;;22.10;52.70;;;;;;5100819;28;20459;-82
2022/03/01 11:25:53;;;;;;;2.97;2.23;;;22.10;52.70;;;;;;5118972;28;20395;-82
2022/03/01 11:28:30;;;;;;;2.90;2.23;;;22.10;52.70;;;;;;5085235;28;20419;-82
2022/03/01 11:30:56;;;;;;;3.17;1.97;;;22.10;52.80;;;;;;5118845;28;20407;-82
2022/03/01 11:33:35;;;;;;;2.23;2.03;;;22.10;52.80;;;;;;5118804;28;20438;-82
2022/03/01 11:36:21;;;;;;;2.80;2.20;;;22.10;52.80;;;;;;5118024;28;20455;-82
2022/03/01 11:39:15;;;;;;;3.20;2.60;;;22.10;52.80;;;;;;5082371;28;20408;-82
2022/03/01 11:45:33;;;;;;;2.97;2.07;;;22.10;52.80;;;;;;5096954;28;20356;-82
2022/03/01 11:48:14;;;;;;;2.63;1.90;;;22.10;52.80;;;;;;5097409;28;20409;-82
2022/03/01 11:50:47;;;;;;;3.10;2.10;;;22.10;52.80;;;;;;5081021;28;20423;-82
2022/03/01 11:53:22;;;;;;;2.90;2.20;;;22.10;52.90;;;;;;5117393;28;20419;-82
2022/03/01 11:56:12;;;;;;;2.53;1.90;;;22.10;52.90;;;;;;5050241;28;20388;-81
2022/03/01 12:01:47;;;;;;;2.60;2.27;;;22.10;52.80;;;;;;5058165;28;20425;-81
2022/03/01 12:07:22;;;;;;;3.43;2.63;;;22.10;52.90;;;;;;5118130;28;20406;-82
2022/03/01 12:10:16;;;;;;;2.50;2.10;;;22.10;52.90;;;;;;5099507;28;20432;-82
2022/03/01 12:13:01;;;;;;;3.80;2.00;;;22.10;52.90;;;;;;5098455;28;20419;-82
2022/03/01 12:15:41;;;;;;;2.03;1.80;;;22.10;52.90;;;;;;5099908;28;20411;-82
2022/03/01 12:18:58;;;;;;;2.20;2.00;;;22.10;52.90;;;;;;5102563;28;20422;-82
2022/03/01 12:21:29;;;;;;;2.10;1.63;;;22.10;52.90;;;;;;5099554;28;20424;-82
2022/03/01 12:23:57;;;;;;;2.93;2.37;;;22.10;52.90;;;;;;5100939;28;20422;-82
2022/03/01 12:26:39;;;;;;;1.97;1.60;;;22.10;52.90;;;;;;5116970;28;20400;-82
2022/03/01 12:29:10;;;;;;;2.67;1.93;;;22.10;52.90;;;;;;5099979;28;20446;-82
2022/03/01 12:31:38;;;;;;;4.87;1.93;;;22.10;52.90;;;;;;5098271;28;20408;-82
2022/03/01 12:34:27;;;;;;;2.23;1.80;;;22.10;52.90;;;;;;5116991;28;20408;-82
2022/03/01 12:47:15;;;;;;;2.10;1.87;;;22.10;52.90;;;;;;5075208;28;20409;-82
2022/03/01 12:49:47;;;;;;;2.10;1.70;;;22.10;52.90;;;;;;5053576;28;20413;-82
2022/03/01 12:52:36;;;;;;;2.30;1.83;;;22.10;52.90;;;;;;5075360;28;20501;-82
2022/03/01 12:55:11;;;;;;;3.90;1.70;;;22.10;52.90;;;;;;5057630;28;20428;-82
2022/03/01 12:57:41;;;;;;;2.50;2.13;;;22.10;52.90;;;;;;5058687;28;20424;-81
2022/03/01 13:00:10;;;;;;;1.90;1.70;;;22.10;52.90;;;;;;5058714;28;20447;-82
2022/03/01 13:02:42;;;;;;;2.03;1.70;;;22.10;52.90;;;;;;5074619;28;20428;-82
2022/03/01 13:06:09;;;;;;;2.63;2.30;;;22.10;52.90;;;;;;5043049;28;20426;-82
2022/03/01 13:08:41;;;;;;;2.73;2.23;;;22.20;53.00;;;;;;5051533;28;20459;-82
2022/03/01 13:12:00;;;;;;;2.50;1.97;;;22.20;52.90;;;;;;5065681;28;20901;-81
2022/03/01 13:14:33;;;;;;;3.03;1.57;;;22.20;53.00;;;;;;5074598;28;20406;-82
2022/03/01 13:17:05;;;;;;;2.77;2.47;;;22.10;52.90;;;;;;5057979;28;20452;-82
2022/03/01 13:19:34;;;;;;;3.40;1.90;;;22.10;52.90;;;;;;5074758;28;20433;-81
2022/03/01 13:22:34;;;;;;;2.60;1.90;;;22.10;52.90;;;;;;5064756;28;20418;-81
2022/03/01 13:25:14;;;;;;;2.60;2.07;;;22.20;53.00;;;;;;5091833;28;20416;-82
2022/03/01 13:27:53;;;;;;;2.13;1.77;;;22.10;52.90;;;;;;5096044;28;20397;-83
2022/03/01 13:30:55;;;;;;;2.57;1.97;;;22.20;53.00;;;;;;5082554;28;20418;-82
2022/03/01 13:33:34;;;;;;;2.27;1.63;;;22.20;53.00;;;;;;5110077;28;20512;-82
2022/03/01 13:39:14;;;;;;;2.10;1.67;;;22.20;53.00;;;;;;5086632;28;20438;-83
2022/03/01 13:42:01;;;;;;;1.97;1.77;;;22.20;53.00;;;;;;5115897;28;20376;-81
2022/03/01 13:44:33;;;;;;;1.93;1.50;;;22.20;53.00;;;;;;5115054;28;20423;-82